Time;durP1;ratioP1;P1;durP2;ratioP2;P2;SDS_P1;SDS_P2;PMS_P1;PMS_P2;Temp;Humidity;BMP_temperature;BMP_pressure;BME280_temperature;BME280_humidity;BME280_pressure;Samples;Min_cycle;Max_cycle;Signal;HPM_P1;HPM_P2
2022/01/05 00:00:09;;;;;;;1.83;1.40;;;;;;;;;;4976808;28;20418;-60
2022/01/05 00:02:36;;;;;;;2.20;2.00;;;;;;;;;;4976710;28;20891;-60
2022/01/05 00:05:05;;;;;;;2.13;1.90;;;;;;;;;;4976626;28;20405;-59
2022/01/05 00:07:31;;;;;;;2.57;1.93;;;;;;;;;;4976357;28;20412;-60
2022/01/05 00:09:58;;;;;;;2.30;2.00;;;;;;;;;;4976624;28;20490;-59
2022/01/05 00:12:24;;;;;;;2.50;1.97;;;;;;;;;;4976325;28;20467;-59
2022/01/05 00:14:50;;;;;;;3.27;2.00;;;;;;;;;;4976144;28;20420;-60
2022/01/05 00:17:16;;;;;;;2.40;1.80;;;;;;;;;;4975924;28;20457;-60
2022/01/05 00:19:43;;;;;;;2.00;1.50;;;;;;;;;;4976085;28;20406;-60
2022/01/05 00:22:10;;;;;;;3.47;2.53;;;;;;;;;;4976342;28;20758;-58
2022/01/05 00:24:36;;;;;;;2.20;1.50;;;;;;;;;;4976237;28;20498;-59
2022/01/05 00:27:03;;;;;;;1.93;1.50;;;;;;;;;;4998371;23;20493;-66
2022/01/05 00:29:29;;;;;;;2.13;1.60;;;;;;;;;;4976031;28;20398;-66
2022/01/05 00:31:55;;;;;;;1.73;1.50;;;;;;;;;;4975871;28;20393;-66
2022/01/05 00:34:21;;;;;;;1.80;1.20;;;;;;;;;;4975818;28;20401;-66
2022/01/05 00:36:47;;;;;;;1.80;1.30;;;;;;;;;;4975768;28;20458;-66
2022/01/05 00:39:13;;;;;;;3.00;1.43;;;;;;;;;;4976129;28;20548;-67
2022/01/05 00:41:39;;;;;;;2.03;1.43;;;;;;;;;;4975962;28;20397;-67
2022/01/05 00:44:05;;;;;;;2.03;1.37;;;;;;;;;;4990648;28;20453;-67
2022/01/05 00:46:31;;;;;;;3.00;1.90;;;;;;;;;;4975886;28;20480;-67
2022/01/05 00:48:57;;;;;;;1.70;1.50;;;;;;;;;;4975470;28;20476;-66
2022/01/05 00:51:23;;;;;;;2.07;1.57;;;;;;;;;;4976034;28;20406;-66
2022/01/05 00:53:49;;;;;;;4.90;1.20;;;;;;;;;;4975518;28;20964;-66
2022/01/05 00:56:15;;;;;;;2.33;1.50;;;;;;;;;;4975275;28;20458;-66
2022/01/05 00:58:42;;;;;;;2.07;1.43;;;;;;;;;;4975632;28;20489;-66
2022/01/05 01:01:08;;;;;;;1.83;1.30;;;;;;;;;;4975189;28;20401;-66
2022/01/05 01:03:34;;;;;;;1.90;1.30;;;;;;;;;;4975309;28;20393;-66
2022/01/05 01:06:00;;;;;;;1.40;1.00;;;;;;;;;;4975107;28;20488;-66
2022/01/05 01:08:26;;;;;;;2.27;1.40;;;;;;;;;;4975405;28;20464;-69
2022/01/05 01:10:53;;;;;;;2.77;1.37;;;;;;;;;;4975153;28;20402;-67
2022/01/05 01:13:19;;;;;;;1.60;1.10;;;;;;;;;;4990077;28;20445;-66
2022/01/05 01:15:46;;;;;;;1.77;1.60;;;;;;;;;;4975260;28;20762;-67
2022/01/05 01:18:13;;;;;;;1.60;1.30;;;;;;;;;;4974835;28;20460;-67
2022/01/05 01:20:39;;;;;;;1.30;1.00;;;;;;;;;;4975187;28;20455;-67
2022/01/05 01:23:05;;;;;;;3.30;1.07;;;;;;;;;;4975176;28;20410;-68
2022/01/05 01:25:31;;;;;;;1.43;0.90;;;;;;;;;;4974868;28;20398;-68
2022/01/05 01:27:57;;;;;;;1.80;1.00;;;;;;;;;;4974642;28;20792;-66
2022/01/05 01:30:23;;;;;;;1.30;0.80;;;;;;;;;;4974856;28;20409;-68
2022/01/05 01:32:49;;;;;;;1.60;0.90;;;;;;;;;;4974585;28;20409;-67
2022/01/05 01:35:15;;;;;;;1.77;1.20;;;;;;;;;;4975059;28;20406;-66
2022/01/05 01:37:41;;;;;;;1.27;0.87;;;;;;;;;;4974805;28;20818;-68
2022/01/05 01:40:07;;;;;;;1.40;0.90;;;;;;;;;;4974658;28;20413;-68
2022/01/05 01:42:34;;;;;;;1.37;1.00;;;;;;;;;;4975205;28;20938;-67
2022/01/05 01:45:01;;;;;;;1.43;1.00;;;;;;;;;;4974679;28;20512;-68
2022/01/05 01:47:27;;;;;;;1.90;0.90;;;;;;;;;;4974487;28;20484;-68
2022/01/05 01:49:53;;;;;;;1.30;0.80;;;;;;;;;;4974445;28;20410;-66
2022/01/05 01:52:19;;;;;;;1.37;0.93;;;;;;;;;;4974745;28;20496;-66
2022/01/05 01:54:46;;;;;;;1.50;0.90;;;;;;;;;;4974447;28;20413;-66
2022/01/05 01:57:12;;;;;;;1.40;1.00;;;;;;;;;;4974228;28;20473;-66
2022/01/05 01:59:39;;;;;;;1.47;1.07;;;;;;;;;;4974696;28;20409;-65
2022/01/05 02:02:05;;;;;;;1.30;1.03;;;;;;;;;;4974260;28;20464;-66
2022/01/05 02:04:32;;;;;;;1.70;1.10;;;;;;;;;;4974594;28;20436;-66
2022/01/05 02:06:58;;;;;;;1.67;1.10;;;;;;;;;;4974735;28;20434;-66
2022/01/05 02:09:24;;;;;;;1.33;1.00;;;;;;;;;;4973204;28;20489;-66
2022/01/05 02:11:50;;;;;;;1.50;1.10;;;;;;;;;;4974250;28;20887;-66
2022/01/05 02:14:16;;;;;;;1.47;1.00;;;;;;;;;;4975096;28;20432;-67
2022/01/05 02:16:44;;;;;;;1.90;1.47;;;;;;;;;;4974165;28;20831;-66
2022/01/05 02:19:11;;;;;;;2.03;1.10;;;;;;;;;;4974180;28;20398;-67
2022/01/05 02:21:38;;;;;;;1.70;1.23;;;;;;;;;;4974238;28;20402;-67
2022/01/05 02:24:05;;;;;;;1.50;1.10;;;;;;;;;;4974159;28;20465;-67
2022/01/05 02:26:32;;;;;;;1.40;0.90;;;;;;;;;;4974121;28;20523;-66
2022/01/05 02:28:58;;;;;;;1.30;0.93;;;;;;;;;;4974161;28;20435;-67
2022/01/05 02:31:24;;;;;;;1.80;1.37;;;;;;;;;;4974148;28;20982;-67
2022/01/05 02:33:50;;;;;;;1.50;1.10;;;;;;;;;;4974158;28;20412;-67
2022/01/05 02:36:19;;;;;;;1.50;1.10;;;;;;;;;;4974293;28;20440;-67
2022/01/05 02:38:46;;;;;;;1.70;1.20;;;;;;;;;;4974182;28;20406;-67
2022/01/05 02:41:12;;;;;;;1.47;1.00;;;;;;;;;;4974132;28;20773;-67
2022/01/05 02:43:39;;;;;;;1.40;0.97;;;;;;;;;;4974326;28;20430;-67
2022/01/05 02:46:06;;;;;;;1.30;0.80;;;;;;;;;;4977363;28;20425;-66
2022/01/05 02:48:33;;;;;;;1.30;1.03;;;;;;;;;;4978075;28;20809;-66
2022/01/05 02:50:59;;;;;;;1.30;0.80;;;;;;;;;;4977687;28;20532;-67
2022/01/05 02:53:25;;;;;;;1.30;1.00;;;;;;;;;;4977865;28;20472;-67
2022/01/05 02:55:52;;;;;;;1.20;0.80;;;;;;;;;;4977848;28;20433;-67
2022/01/05 02:58:18;;;;;;;1.50;1.00;;;;;;;;;;4977536;28;20456;-67
2022/01/05 03:00:44;;;;;;;1.40;1.00;;;;;;;;;;4977763;28;20430;-67
2022/01/05 03:03:10;;;;;;;1.27;0.90;;;;;;;;;;4977654;28;20408;-66
2022/01/05 03:05:36;;;;;;;1.30;0.90;;;;;;;;;;4977485;28;20412;-67
2022/01/05 03:08:02;;;;;;;1.50;1.00;;;;;;;;;;4977663;28;20484;-66
2022/01/05 03:10:28;;;;;;;1.47;0.93;;;;;;;;;;4977317;28;20409;-66
2022/01/05 03:12:54;;;;;;;1.30;0.93;;;;;;;;;;4977331;28;20468;-66
2022/01/05 03:15:20;;;;;;;1.43;1.00;;;;;;;;;;4977254;28;20416;-67
2022/01/05 03:17:47;;;;;;;1.30;0.80;;;;;;;;;;4977094;28;20773;-67
2022/01/05 03:20:13;;;;;;;1.77;1.07;;;;;;;;;;4977341;28;20424;-67
2022/01/05 03:22:40;;;;;;;1.30;0.90;;;;;;;;;;4977365;28;20456;-67
2022/01/05 03:25:07;;;;;;;1.30;0.90;;;;;;;;;;4976962;28;20416;-67
2022/01/05 03:27:33;;;;;;;1.47;1.00;;;;;;;;;;4991829;28;20552;-67
2022/01/05 03:30:00;;;;;;;1.40;0.90;;;;;;;;;;4977082;28;20421;-67
2022/01/05 03:32:33;;;;;;;1.40;0.77;;;;;;;;;;4976937;28;20409;-67
2022/01/05 03:34:59;;;;;;;4.63;1.10;;;;;;;;;;4977355;28;20397;-67
2022/01/05 03:37:25;;;;;;;2.57;1.00;;;;;;;;;;4976750;28;20469;-67
2022/01/05 03:39:51;;;;;;;1.47;1.00;;;;;;;;;;4976767;28;20982;-67
2022/01/05 03:42:17;;;;;;;1.53;0.93;;;;;;;;;;4976782;28;20397;-67
2022/01/05 03:44:43;;;;;;;1.30;0.80;;;;;;;;;;4976650;28;20409;-67
2022/01/05 03:47:09;;;;;;;1.50;0.80;;;;;;;;;;4976653;28;20432;-67
2022/01/05 03:49:35;;;;;;;1.40;0.90;;;;;;;;;;4976585;28;20401;-67
2022/01/05 03:52:03;;;;;;;1.40;0.90;;;;;;;;;;4976568;28;20772;-67
2022/01/05 03:54:29;;;;;;;1.50;0.90;;;;;;;;;;4976742;28;20412;-67
2022/01/05 03:56:55;;;;;;;1.40;0.87;;;;;;;;;;4976093;28;20552;-67
2022/01/05 03:59:21;;;;;;;1.47;0.93;;;;;;;;;;4976470;28;20784;-67
2022/01/05 04:01:47;;;;;;;2.17;1.10;;;;;;;;;;4976356;28;20397;-67
2022/01/05 04:04:13;;;;;;;1.20;0.70;;;;;;;;;;4976224;28;20406;-67
2022/01/05 04:06:39;;;;;;;1.30;0.80;;;;;;;;;;4976374;28;20584;-67
2022/01/05 04:09:05;;;;;;;1.40;0.77;;;;;;;;;;4976237;28;20405;-67
2022/01/05 04:11:31;;;;;;;1.30;0.70;;;;;;;;;;4976473;28;20409;-67
2022/01/05 04:13:57;;;;;;;1.50;0.80;;;;;;;;;;4976228;28;20409;-67
2022/01/05 04:16:23;;;;;;;1.20;0.80;;;;;;;;;;4975991;28;20433;-67
2022/01/05 04:18:49;;;;;;;1.50;0.83;;;;;;;;;;4976258;28;20429;-67
2022/01/05 04:21:15;;;;;;;1.20;0.70;;;;;;;;;;4976337;28;20409;-67
2022/01/05 04:23:41;;;;;;;1.30;1.00;;;;;;;;;;4975945;28;20406;-67
2022/01/05 04:26:07;;;;;;;1.97;0.80;;;;;;;;;;4975969;28;20453;-67
2022/01/05 04:28:35;;;;;;;1.60;0.80;;;;;;;;;;4975909;28;20405;-67
2022/01/05 04:31:01;;;;;;;1.20;0.80;;;;;;;;;;4976209;28;20858;-67
2022/01/05 04:33:27;;;;;;;1.30;0.80;;;;;;;;;;4976273;28;20762;-67
2022/01/05 04:35:53;;;;;;;1.20;0.70;;;;;;;;;;4976306;28;20434;-67
2022/01/05 04:38:19;;;;;;;1.20;0.70;;;;;;;;;;4975699;28;20508;-67
2022/01/05 04:40:45;;;;;;;1.30;0.80;;;;;;;;;;4975719;28;20887;-67
2022/01/05 04:43:11;;;;;;;1.80;1.00;;;;;;;;;;4975976;28;20750;-67
2022/01/05 04:45:37;;;;;;;1.63;0.83;;;;;;;;;;4975811;28;20409;-67
2022/01/05 04:48:03;;;;;;;1.77;0.77;;;;;;;;;;4975855;28;20409;-68
2022/01/05 04:50:29;;;;;;;1.70;0.80;;;;;;;;;;4975651;28;20406;-68
2022/01/05 04:52:55;;;;;;;1.20;0.80;;;;;;;;;;4990403;28;20414;-67
2022/01/05 04:55:21;;;;;;;1.30;0.80;;;;;;;;;;4975404;28;20441;-67
2022/01/05 04:57:47;;;;;;;1.20;0.80;;;;;;;;;;4975178;28;20457;-67
2022/01/05 05:00:14;;;;;;;1.20;0.70;;;;;;;;;;4975521;28;20410;-67
2022/01/05 05:02:40;;;;;;;1.30;0.90;;;;;;;;;;4975251;28;20504;-67
2022/01/05 05:05:06;;;;;;;1.50;0.70;;;;;;;;;;4975503;28;20480;-67
2022/01/05 05:07:32;;;;;;;1.30;0.80;;;;;;;;;;4974395;28;20425;-67
2022/01/05 05:09:58;;;;;;;1.87;0.90;;;;;;;;;;4975455;28;20405;-67
2022/01/05 05:12:24;;;;;;;1.30;0.70;;;;;;;;;;4975408;28;20413;-67
2022/01/05 05:14:50;;;;;;;1.40;0.83;;;;;;;;;;4975057;28;20409;-67
2022/01/05 05:17:17;;;;;;;1.20;0.70;;;;;;;;;;4974890;28;20457;-67
2022/01/05 05:19:43;;;;;;;1.30;0.80;;;;;;;;;;4975669;28;20418;-67
2022/01/05 05:22:09;;;;;;;1.23;0.70;;;;;;;;;;4975257;28;20413;-67
2022/01/05 05:24:35;;;;;;;1.30;0.90;;;;;;;;;;4974899;28;20441;-67
2022/01/05 05:27:01;;;;;;;1.20;0.70;;;;;;;;;;4974764;28;20456;-67
2022/01/05 05:29:27;;;;;;;1.40;0.80;;;;;;;;;;4975234;28;20459;-66
2022/01/05 05:31:53;;;;;;;1.40;0.90;;;;;;;;;;4974883;28;20416;-66
2022/01/05 05:34:19;;;;;;;1.27;0.73;;;;;;;;;;4974928;28;20428;-67
2022/01/05 05:36:45;;;;;;;1.30;0.70;;;;;;;;;;4974569;28;20453;-67
2022/01/05 05:39:11;;;;;;;1.20;0.80;;;;;;;;;;4974824;28;20397;-67
2022/01/05 05:41:37;;;;;;;1.20;0.70;;;;;;;;;;4974790;28;20401;-67
2022/01/05 05:44:03;;;;;;;1.30;0.90;;;;;;;;;;4974636;28;20410;-67
2022/01/05 05:46:29;;;;;;;1.40;0.70;;;;;;;;;;4974844;28;20432;-66
2022/01/05 05:48:55;;;;;;;1.20;0.70;;;;;;;;;;4974834;28;20405;-66
2022/01/05 05:51:21;;;;;;;1.20;0.70;;;;;;;;;;4974529;28;20921;-67
2022/01/05 05:53:47;;;;;;;1.70;0.80;;;;;;;;;;4989844;28;20496;-67
2022/01/05 05:56:13;;;;;;;2.03;1.30;;;;;;;;;;4974746;28;21017;-67
2022/01/05 05:58:39;;;;;;;1.30;0.77;;;;;;;;;;4974371;28;20950;-67
2022/01/05 06:01:05;;;;;;;1.20;0.80;;;;;;;;;;4974691;28;20401;-67
2022/01/05 06:03:31;;;;;;;1.20;0.70;;;;;;;;;;4989237;28;20413;-66
2022/01/05 06:05:57;;;;;;;1.30;0.80;;;;;;;;;;4974484;28;20824;-66
2022/01/05 06:08:23;;;;;;;1.20;0.70;;;;;;;;;;4974565;28;20890;-66
2022/01/05 06:10:49;;;;;;;1.30;0.80;;;;;;;;;;4974894;28;20879;-66
2022/01/05 06:13:15;;;;;;;1.30;0.70;;;;;;;;;;4974646;28;20444;-67
2022/01/05 06:15:41;;;;;;;1.30;0.80;;;;;;;;;;4974218;28;20413;-67
2022/01/05 06:18:07;;;;;;;1.20;0.80;;;;;;;;;;4974675;28;20835;-66
2022/01/05 06:20:33;;;;;;;3.27;0.77;;;;;;;;;;4978272;28;20405;-66
2022/01/05 06:22:59;;;;;;;1.20;0.70;;;;;;;;;;4978515;28;20401;-66
2022/01/05 06:25:26;;;;;;;1.20;0.70;;;;;;;;;;4978170;28;20412;-66
2022/01/05 06:27:52;;;;;;;1.20;0.70;;;;;;;;;;5001685;23;20555;-60
2022/01/05 06:30:18;;;;;;;1.30;0.80;;;;;;;;;;4978200;28;20476;-59
2022/01/05 06:32:45;;;;;;;1.30;0.90;;;;;;;;;;4978229;28;20397;-60
2022/01/05 06:35:11;;;;;;;1.30;0.70;;;;;;;;;;4978327;28;20448;-59
2022/01/05 06:37:37;;;;;;;1.30;0.80;;;;;;;;;;4978040;28;20460;-60
2022/01/05 06:40:03;;;;;;;1.20;0.70;;;;;;;;;;4977946;28;20405;-59
2022/01/05 06:42:29;;;;;;;1.40;0.70;;;;;;;;;;4977970;28;20409;-60
2022/01/05 06:44:55;;;;;;;1.63;0.90;;;;;;;;;;4978203;28;20806;-60
2022/01/05 06:47:21;;;;;;;1.20;0.73;;;;;;;;;;4977848;28;20504;-60
2022/01/05 06:49:48;;;;;;;1.30;0.80;;;;;;;;;;4978307;28;20754;-60
2022/01/05 06:52:14;;;;;;;1.30;0.77;;;;;;;;;;4978100;28;20406;-60
2022/01/05 06:54:40;;;;;;;1.20;0.80;;;;;;;;;;4978242;28;20409;-60
2022/01/05 06:57:07;;;;;;;1.30;0.80;;;;;;;;;;4978013;28;20460;-60
2022/01/05 06:59:33;;;;;;;2.60;0.90;;;;;;;;;;4978057;28;20405;-60
2022/01/05 07:01:59;;;;;;;1.57;0.90;;;;;;;;;;4976605;28;20409;-60
2022/01/05 07:04:25;;;;;;;1.37;0.80;;;;;;;;;;4977937;28;20423;-58
2022/01/05 07:06:51;;;;;;;2.60;0.80;;;;;;;;;;4977643;28;20918;-59
2022/01/05 07:09:17;;;;;;;1.70;0.80;;;;;;;;;;4977762;28;20544;-57
2022/01/05 07:11:43;;;;;;;1.37;0.93;;;;;;;;;;4977761;28;20421;-60
2022/01/05 07:14:09;;;;;;;2.10;0.80;;;;;;;;;;4976243;28;20923;-58
2022/01/05 07:16:35;;;;;;;1.20;0.70;;;;;;;;;;4977567;28;20433;-60
2022/01/05 07:19:01;;;;;;;1.30;0.80;;;;;;;;;;4977917;28;20410;-59
2022/01/05 07:21:29;;;;;;;1.40;0.73;;;;;;;;;;4977860;28;20464;-59
2022/01/05 07:23:55;;;;;;;1.20;0.70;;;;;;;;;;4977363;28;20899;-60
2022/01/05 07:26:21;;;;;;;5.40;0.83;;;;;;;;;;4977145;28;20532;-60
2022/01/05 07:28:47;;;;;;;1.70;0.80;;;;;;;;;;4977488;28;20405;-55
2022/01/05 07:31:13;;;;;;;1.30;0.70;;;;;;;;;;4975418;28;20417;-60
2022/01/05 07:33:39;;;;;;;1.20;0.70;;;;;;;;;;4977410;28;20406;-58
2022/01/05 07:36:05;;;;;;;1.90;1.00;;;;;;;;;;4977430;28;20413;-59
2022/01/05 07:38:31;;;;;;;1.20;0.77;;;;;;;;;;4977188;28;20477;-58
2022/01/05 07:40:57;;;;;;;1.60;1.00;;;;;;;;;;4970968;28;22275;-61
2022/01/05 07:43:23;;;;;;;1.20;0.70;;;;;;;;;;4970179;28;20429;-57
2022/01/05 07:45:50;;;;;;;1.73;0.97;;;;;;;;;;4975405;28;20451;-61
2022/01/05 07:48:16;;;;;;;2.07;1.00;;;;;;;;;;4976095;28;20417;-59
2022/01/05 07:50:42;;;;;;;2.37;1.13;;;;;;;;;;4975979;28;20734;-58
2022/01/05 07:53:08;;;;;;;1.40;0.80;;;;;;;;;;4976120;28;20425;-58
2022/01/05 07:55:35;;;;;;;1.60;0.90;;;;;;;;;;4975843;28;20517;-54
2022/01/05 07:58:01;;;;;;;1.23;0.73;;;;;;;;;;4971117;28;20547;-57
2022/01/05 08:00:27;;;;;;;1.33;0.80;;;;;;;;;;4966318;28;20425;-57
2022/01/05 08:02:53;;;;;;;1.20;0.70;;;;;;;;;;4976702;28;20790;-56
2022/01/05 08:05:19;;;;;;;1.70;0.80;;;;;;;;;;4973394;28;20889;-55
2022/01/05 08:07:45;;;;;;;1.90;0.90;;;;;;;;;;4973938;28;20445;-56
2022/01/05 08:10:12;;;;;;;1.93;1.20;;;;;;;;;;4974366;28;20433;-55
2022/01/05 08:12:40;;;;;;;1.70;1.03;;;;;;;;;;4973886;28;20883;-55
2022/01/05 08:15:06;;;;;;;1.40;0.80;;;;;;;;;;4975107;28;20428;-57
2022/01/05 08:17:32;;;;;;;1.40;1.00;;;;;;;;;;4982621;28;20519;-59
2022/01/05 08:19:58;;;;;;;1.30;0.80;;;;;;;;;;4980337;28;20468;-59
2022/01/05 08:22:24;;;;;;;1.40;0.97;;;;;;;;;;4971336;28;20464;-58
2022/01/05 08:24:51;;;;;;;1.40;0.83;;;;;;;;;;4965247;28;20406;-57
2022/01/05 08:27:17;;;;;;;1.30;0.80;;;;;;;;;;4973932;28;20457;-58
2022/01/05 08:29:43;;;;;;;1.30;0.90;;;;;;;;;;4965378;28;20429;-56
2022/01/05 08:32:09;;;;;;;1.50;0.87;;;;;;;;;;4972111;28;20429;-58
2022/01/05 08:34:35;;;;;;;1.63;0.90;;;;;;;;;;4973651;28;20580;-56
2022/01/05 08:37:01;;;;;;;1.40;0.90;;;;;;;;;;4973880;28;21390;-57
2022/01/05 08:39:27;;;;;;;1.50;0.90;;;;;;;;;;4973083;28;20418;-58
2022/01/05 08:41:53;;;;;;;1.60;0.80;;;;;;;;;;4964587;28;20501;-58
2022/01/05 08:44:19;;;;;;;1.50;0.90;;;;;;;;;;4973498;28;20434;-57
2022/01/05 08:46:46;;;;;;;2.13;0.93;;;;;;;;;;4973124;28;20455;-58
2022/01/05 08:49:12;;;;;;;2.07;1.00;;;;;;;;;;4973915;28;20531;-58
2022/01/05 08:51:38;;;;;;;1.60;0.90;;;;;;;;;;4974704;28;20977;-57
2022/01/05 08:54:06;;;;;;;1.60;0.90;;;;;;;;;;4972592;28;20480;-58
2022/01/05 08:56:32;;;;;;;1.50;1.00;;;;;;;;;;4974286;28;20456;-56
2022/01/05 08:58:58;;;;;;;1.40;0.90;;;;;;;;;;4974517;28;20439;-56
2022/01/05 09:01:25;;;;;;;1.50;0.90;;;;;;;;;;4974258;28;20432;-58
2022/01/05 09:03:52;;;;;;;1.40;0.90;;;;;;;;;;4972080;28;20472;-57
2022/01/05 09:06:18;;;;;;;1.50;1.00;;;;;;;;;;4976535;28;20969;-59
2022/01/05 09:08:44;;;;;;;1.70;1.20;;;;;;;;;;4973638;28;20426;-55
2022/01/05 09:11:11;;;;;;;1.30;0.80;;;;;;;;;;4970199;28;20476;-57
2022/01/05 09:13:37;;;;;;;1.40;0.90;;;;;;;;;;4970603;28;20433;-58
2022/01/05 09:16:03;;;;;;;1.90;1.03;;;;;;;;;;4970080;28;20766;-59
2022/01/05 09:18:29;;;;;;;1.40;0.97;;;;;;;;;;4969983;28;20453;-59
2022/01/05 09:20:55;;;;;;;1.57;0.93;;;;;;;;;;4974362;28;20412;-58
2022/01/05 09:23:21;;;;;;;1.67;1.20;;;;;;;;;;4965386;28;20477;-59
2022/01/05 09:25:48;;;;;;;2.17;1.27;;;;;;;;;;4970360;28;20965;-59
2022/01/05 09:28:14;;;;;;;1.50;1.00;;;;;;;;;;4971299;28;20778;-59
2022/01/05 09:30:45;;;;;;;1.70;1.30;;;;;;;;;;4963187;28;20831;-58
2022/01/05 09:33:11;;;;;;;2.03;1.40;;;;;;;;;;4962758;28;20804;-59
2022/01/05 09:35:37;;;;;;;1.80;1.40;;;;;;;;;;4972798;28;20429;-56
2022/01/05 09:43:14;;;;;;;3.73;2.30;;;;;;;;;;4961067;28;20429;-58
2022/01/05 09:45:50;;;;;;;2.73;2.10;;;;;;;;;;4974046;28;20439;-59
2022/01/05 09:48:37;;;;;;;3.10;2.80;;;;;;;;;;4976595;28;20863;-57
2022/01/05 09:51:05;;;;;;;3.83;2.63;;;;;;;;;;4967571;28;20420;-56
2022/01/05 09:53:33;;;;;;;3.40;2.50;;;;;;;;;;4970899;28;20425;-57
2022/01/05 09:55:59;;;;;;;2.80;2.50;;;;;;;;;;4966920;28;20431;-58
2022/01/05 09:58:25;;;;;;;2.47;2.27;;;;;;;;;;4962098;28;20510;-59
2022/01/05 10:00:52;;;;;;;2.80;2.50;;;;;;;;;;4973438;28;20417;-57
2022/01/05 10:03:18;;;;;;;3.97;2.80;;;;;;;;;;4963453;28;20997;-59
2022/01/05 10:05:45;;;;;;;3.23;2.50;;;;;;;;;;4971499;28;20993;-60
2022/01/05 10:08:11;;;;;;;3.00;2.67;;;;;;;;;;4971066;28;20452;-58
2022/01/05 10:10:37;;;;;;;3.80;3.30;;;;;;;;;;4962478;28;20487;-53
2022/01/05 10:13:03;;;;;;;5.93;3.27;;;;;;;;;;4973440;28;20424;-56
2022/01/05 10:15:30;;;;;;;3.23;2.93;;;;;;;;;;4965469;28;20517;-57
2022/01/05 10:18:14;;;;;;;4.30;3.00;;;;;;;;;;4971468;28;20464;-58
2022/01/05 10:20:56;;;;;;;3.60;3.30;;;;;;;;;;4973234;28;20914;-58
2022/01/05 10:23:35;;;;;;;3.93;3.40;;;;;;;;;;4962258;28;20429;-57
2022/01/05 10:26:20;;;;;;;3.27;2.97;;;;;;;;;;4970734;28;20948;-54
2022/01/05 10:28:46;;;;;;;4.27;2.40;;;;;;;;;;4972811;28;20976;-54
2022/01/05 10:31:16;;;;;;;4.00;3.03;;;;;;;;;;4971496;28;20438;-55
2022/01/05 10:33:42;;;;;;;4.47;3.63;;;;;;;;;;4970663;28;20429;-54
2022/01/05 10:36:08;;;;;;;3.77;3.23;;;;;;;;;;4967262;28;20441;-58
2022/01/05 10:38:34;;;;;;;3.03;2.80;;;;;;;;;;4959707;28;20460;-57
2022/01/05 10:41:16;;;;;;;5.10;3.33;;;;;;;;;;4971583;28;20422;-57
2022/01/05 10:44:01;;;;;;;3.17;2.73;;;;;;;;;;4965179;28;20773;-57
2022/01/05 10:46:35;;;;;;;3.20;2.90;;;;;;;;;;4967348;28;20438;-57
2022/01/05 10:49:03;;;;;;;2.93;2.60;;;;;;;;;;4958518;28;20504;-55
2022/01/05 10:51:29;;;;;;;2.77;2.50;;;;;;;;;;4962242;28;20512;-53
2022/01/05 10:54:10;;;;;;;3.60;2.90;;;;;;;;;;4972532;28;20416;-52
2022/01/05 10:56:36;;;;;;;2.93;2.53;;;;;;;;;;4962078;28;20785;-56
2022/01/05 10:59:03;;;;;;;3.33;2.57;;;;;;;;;;4966138;28;20415;-55
2022/01/05 11:01:30;;;;;;;2.57;2.33;;;;;;;;;;4967498;28;20418;-57
2022/01/05 11:03:56;;;;;;;2.20;2.00;;;;;;;;;;4957247;28;20421;-57
2022/01/05 11:06:22;;;;;;;2.00;1.80;;;;;;;;;;4957864;28;20442;-56
2022/01/05 11:08:52;;;;;;;2.53;1.70;;;;;;;;;;4972578;28;20421;-56
2022/01/05 11:11:37;;;;;;;2.80;1.90;;;;;;;;;;4971977;28;20431;-56
2022/01/05 11:14:07;;;;;;;4.90;1.97;;;;;;;;;;4960904;28;20454;-58
2022/01/05 11:16:33;;;;;;;9.43;2.60;;;;;;;;;;4972136;28;20464;-53
2022/01/05 11:19:11;;;;;;;2.53;2.00;;;;;;;;;;4970672;28;20536;-57
2022/01/05 11:21:38;;;;;;;7.60;2.63;;;;;;;;;;4966485;28;20900;-56
2022/01/05 11:24:05;;;;;;;2.77;1.97;;;;;;;;;;4970221;28;20479;-57
2022/01/05 11:26:35;;;;;;;2.60;1.87;;;;;;;;;;4973151;28;20508;-57
2022/01/05 11:29:03;;;;;;;6.17;2.20;;;;;;;;;;4972945;28;20418;-58
2022/01/05 11:31:29;;;;;;;3.90;2.93;;;;;;;;;;4976455;28;21002;-57
2022/01/05 11:33:55;;;;;;;2.63;1.70;;;;;;;;;;4957728;28;20781;-56
2022/01/05 11:36:22;;;;;;;2.90;2.30;;;;;;;;;;4965583;28;20444;-60
2022/01/05 11:38:48;;;;;;;2.70;1.97;;;;;;;;;;4975585;28;21263;-58
2022/01/05 11:41:15;;;;;;;3.00;1.70;;;;;;;;;;4974600;28;20445;-58
2022/01/05 11:43:42;;;;;;;3.50;2.10;;;;;;;;;;4975392;28;20419;-58
2022/01/05 11:46:15;;;;;;;4.77;2.10;;;;;;;;;;4975019;28;20442;-57
2022/01/05 11:48:57;;;;;;;3.07;2.00;;;;;;;;;;4975396;28;20952;-56
2022/01/05 11:51:46;;;;;;;4.33;1.80;;;;;;;;;;4970509;28;20418;-57
2022/01/05 11:54:15;;;;;;;7.83;1.90;;;;;;;;;;4973852;28;20401;-57
2022/01/05 11:56:42;;;;;;;4.77;2.37;;;;;;;;;;4975046;28;21020;-56
2022/01/05 11:59:19;;;;;;;2.60;1.70;;;;;;;;;;4976365;28;20425;-54
2022/01/05 12:02:06;;;;;;;5.93;1.70;;;;;;;;;;4967501;28;20404;-59
2022/01/05 12:04:59;;;;;;;4.63;1.90;;;;;;;;;;4972936;28;21005;-58
2022/01/05 12:07:40;;;;;;;3.00;1.70;;;;;;;;;;4959197;28;20446;-58
2022/01/05 12:10:16;;;;;;;3.37;1.80;;;;;;;;;;4966972;28;20420;-56
2022/01/05 12:13:05;;;;;;;3.67;1.80;;;;;;;;;;4969565;28;20417;-55
2022/01/05 12:15:57;;;;;;;3.13;1.83;;;;;;;;;;4973137;28;20422;-59
2022/01/05 12:18:25;;;;;;;6.00;2.30;;;;;;;;;;4967696;28;20548;-58
2022/01/05 12:20:51;;;;;;;2.13;1.73;;;;;;;;;;4971792;28;20429;-58
2022/01/05 12:23:25;;;;;;;2.90;2.00;;;;;;;;;;4987752;28;20416;-59
2022/01/05 12:26:03;;;;;;;3.00;1.80;;;;;;;;;;4965954;28;20462;-59
2022/01/05 12:28:35;;;;;;;2.43;1.80;;;;;;;;;;4970012;28;20428;-58
2022/01/05 12:31:01;;;;;;;7.03;2.47;;;;;;;;;;4985234;28;20426;-60
2022/01/05 12:33:40;;;;;;;4.77;2.23;;;;;;;;;;4970196;28;20426;-55
2022/01/05 12:36:08;;;;;;;4.78;1.80;;;;;;;;;;4965667;28;20435;-58
2022/01/05 12:38:34;;;;;;;4.87;2.50;;;;;;;;;;4975349;28;20201;-58
2022/01/05 12:41:20;;;;;;;4.37;2.20;;;;;;;;;;4983499;28;20422;-58
2022/01/05 12:43:46;;;;;;;2.90;1.60;;;;;;;;;;4968844;28;20425;-59
2022/01/05 12:46:13;;;;;;;3.83;2.10;;;;;;;;;;4974429;28;20445;-59
2022/01/05 12:48:43;;;;;;;3.27;2.37;;;;;;;;;;4969975;28;20505;-58
2022/01/05 12:51:12;;;;;;;6.03;2.30;;;;;;;;;;4973488;28;20429;-56
2022/01/05 12:54:01;;;;;;;5.20;2.20;;;;;;;;;;4962138;28;20427;-56
2022/01/05 12:56:27;;;;;;;2.33;1.63;;;;;;;;;;4967006;28;21029;-57
2022/01/05 12:58:54;;;;;;;2.23;1.60;;;;;;;;;;4960382;28;20465;-56
2022/01/05 13:01:21;;;;;;;4.97;2.10;;;;;;;;;;4970653;28;20417;-55
2022/01/05 13:03:47;;;;;;;2.40;2.00;;;;;;;;;;4971511;28;20412;-60
2022/01/05 13:06:13;;;;;;;2.97;2.07;;;;;;;;;;4974765;28;20575;-58
2022/01/05 13:08:46;;;;;;;3.47;2.07;;;;;;;;;;4973749;28;20414;-58
2022/01/05 13:11:13;;;;;;;3.40;1.90;;;;;;;;;;4974130;28;20828;-56
2022/01/05 13:13:42;;;;;;;2.93;2.07;;;;;;;;;;4971199;28;20500;-57
2022/01/05 13:16:08;;;;;;;3.10;1.80;;;;;;;;;;4966929;28;20441;-56
2022/01/05 13:18:34;;;;;;;3.40;2.10;;;;;;;;;;4967817;28;20489;-57
2022/01/05 13:21:01;;;;;;;4.70;2.37;;;;;;;;;;4970335;28;20909;-57
2022/01/05 13:23:27;;;;;;;4.23;1.70;;;;;;;;;;4969558;28;20512;-58
2022/01/05 13:25:53;;;;;;;4.93;2.30;;;;;;;;;;4972199;28;20421;-56
2022/01/05 13:28:20;;;;;;;2.23;1.53;;;;;;;;;;4971475;28;20417;-54
2022/01/05 13:30:46;;;;;;;5.20;2.10;;;;;;;;;;4972197;28;20421;-56
2022/01/05 13:33:15;;;;;;;3.60;1.70;;;;;;;;;;4972998;28;20437;-58
2022/01/05 13:35:41;;;;;;;2.83;2.30;;;;;;;;;;4970111;28;20420;-58
2022/01/05 13:38:12;;;;;;;7.47;2.20;;;;;;;;;;4960517;28;20843;-57
2022/01/05 13:40:39;;;;;;;2.27;1.83;;;;;;;;;;4966901;28;20422;-55
2022/01/05 13:43:09;;;;;;;4.90;2.53;;;;;;;;;;4961658;28;20806;-58
2022/01/05 13:45:45;;;;;;;4.20;1.77;;;;;;;;;;4966178;28;20456;-58
2022/01/05 13:48:27;;;;;;;2.47;1.77;;;;;;;;;;4956956;28;20453;-59
2022/01/05 13:50:59;;;;;;;3.30;2.07;;;;;;;;;;4964922;28;20429;-57
2022/01/05 13:53:27;;;;;;;4.40;2.23;;;;;;;;;;4974477;28;20535;-54
2022/01/05 13:55:53;;;;;;;6.60;2.93;;;;;;;;;;4972289;28;20523;-57
2022/01/05 13:58:26;;;;;;;2.50;1.83;;;;;;;;;;4954351;29;20497;-54
2022/01/05 14:01:04;;;;;;;3.97;1.67;;;;;;;;;;4967840;28;20425;-56
2022/01/05 14:03:37;;;;;;;2.87;2.37;;;;;;;;;;4968212;28;20498;-58
2022/01/05 14:06:05;;;;;;;4.73;1.90;;;;;;;;;;4965757;28;20508;-56
2022/01/05 14:08:41;;;;;;;5.20;2.10;;;;;;;;;;4960418;28;20528;-57
2022/01/05 14:11:07;;;;;;;2.73;1.70;;;;;;;;;;4965572;28;20406;-57
2022/01/05 14:13:33;;;;;;;3.80;2.47;;;;;;;;;;4971044;28;20436;-58
2022/01/05 14:16:00;;;;;;;3.20;2.00;;;;;;;;;;4964788;28;20413;-57
2022/01/05 14:18:26;;;;;;;2.80;1.80;;;;;;;;;;4957214;28;20468;-58
2022/01/05 14:20:52;;;;;;;4.60;2.03;;;;;;;;;;4955517;28;20475;-55
2022/01/05 14:23:23;;;;;;;3.83;1.50;;;;;;;;;;4968212;28;20437;-55
2022/01/05 14:25:59;;;;;;;3.43;1.73;;;;;;;;;;4976990;28;20402;-56
2022/01/05 14:28:26;;;;;;;3.77;2.00;;;;;;;;;;4968626;28;20434;-53
2022/01/05 14:30:52;;;;;;;2.60;1.60;;;;;;;;;;4965809;28;20422;-57
2022/01/05 14:33:27;;;;;;;5.20;2.10;;;;;;;;;;4971820;28;20421;-58
2022/01/05 14:35:53;;;;;;;7.57;2.53;;;;;;;;;;4968208;28;20420;-57
2022/01/05 14:38:19;;;;;;;6.17;2.20;;;;;;;;;;4972911;28;20461;-55
2022/01/05 14:40:45;;;;;;;4.60;1.80;;;;;;;;;;4973044;28;20422;-54
2022/01/05 14:43:14;;;;;;;4.67;2.03;;;;;;;;;;4976784;28;20488;-58
2022/01/05 14:45:42;;;;;;;6.50;2.10;;;;;;;;;;4975324;28;20937;-56
2022/01/05 14:48:08;;;;;;;2.73;2.00;;;;;;;;;;4976799;28;20456;-59
2022/01/05 14:50:37;;;;;;;3.70;2.00;;;;;;;;;;4963054;28;20776;-57